Pagina principale
METAR-TAF:

METAR-TAF

Aeroporti :

Angoulême, Francia

latitudine: 45-43-46N, longitudine: 00-13-08E, altezza: 132 m

Osservazione

Il bollettino è stato emesso 26 minuti fa, alle 05:00 UTC
Vento 14 kt da nord/nord-est
Temperature 2°C
Umidità 87%
Pressione 1020 hPa
Visibilità 10 km o più
Nuvoloso ad un'altezza di 1600 ft
Nuvoloso ad un'altezza di 2100 ft
Cielo coperto ad un'altezza di 2700 ft
pioviggine debole

METAR: LFBU 300500Z AUTO 02014KT 9999 -DZ BKN016 BKN021 OVC027 02/M00 Q1020

Ora: 07:26 (05:26 UTC)


TAF: mancante

Osservazioni e previsioni meteorologiche di più di 4000 aeroporti (messaggi METAR e TAF).

Le stazioni disponibili sono rappresentate dai dischi gialli e rossi sulla carta.

Puntare il mouse per vedere il nome della stazione.

Clicca sopra per visualizzare le osservazioni e previsioni meteorologiche.

Per cambiare la mappa : fare clic sui pulsanti verdi con una croce nera per ingrandire, il pulsante verde con un trattino per diminuire, o sulla freccia verde per le mappe adiacenti.


METAR-TAF: